Time;durP1;ratioP1;P1;durP2;ratioP2;P2;SDS_P1;SDS_P2;PMS_P1;PMS_P2;Temp;Humidity;BMP_temperature;BMP_pressure;BME280_temperature;BME280_humidity;BME280_pressure;Samples;Min_cycle;Max_cycle;Signal;HPM_P1;HPM_P2
2022/03/01 00:01:28;;;;;;;3.90;3.10;;;7.50;57.70;;;;;;5032559;28;20028;-86
2022/03/01 00:03:54;;;;;;;3.03;2.75;;;7.50;57.60;;;;;;5031170;28;20476;-86
2022/03/01 00:06:19;;;;;;;3.53;3.10;;;7.50;57.60;;;;;;5030284;28;20038;-85
2022/03/01 00:08:45;;;;;;;3.65;3.33;;;7.40;57.90;;;;;;5032757;28;20030;-86
2022/03/01 00:11:12;;;;;;;3.83;3.15;;;7.40;57.60;;;;;;5031756;28;20392;-86
2022/03/01 00:13:37;;;;;;;3.58;2.88;;;7.40;57.60;;;;;;5031671;28;20026;-86
2022/03/01 00:16:04;;;;;;;3.15;2.85;;;7.40;57.50;;;;;;5032364;28;20578;-85
2022/03/01 00:18:29;;;;;;;3.75;3.03;;;7.40;57.50;;;;;;5024865;28;20104;-86
2022/03/01 00:20:55;;;;;;;3.30;3.00;;;7.40;57.60;;;;;;5031078;28;20057;-85
2022/03/01 00:23:20;;;;;;;4.20;3.25;;;7.40;57.50;;;;;;5031029;28;20044;-86
2022/03/01 00:25:46;;;;;;;3.63;3.10;;;7.40;57.60;;;;;;5032645;28;20028;-86
2022/03/01 00:28:12;;;;;;;4.13;3.30;;;7.40;57.50;;;;;;5032081;28;20589;-86
2022/03/01 00:30:37;;;;;;;3.13;2.83;;;7.40;57.60;;;;;;5032503;28;20456;-86
2022/03/01 00:33:04;;;;;;;3.42;3.13;;;7.30;57.60;;;;;;5031895;28;20471;-85
2022/03/01 00:35:30;;;;;;;4.63;3.65;;;7.40;57.70;;;;;;5024924;28;20030;-86
2022/03/01 00:37:57;;;;;;;3.75;3.20;;;7.40;57.60;;;;;;5035459;28;20018;-87
2022/03/01 00:40:23;;;;;;;3.28;2.92;;;7.40;57.60;;;;;;5035657;28;20045;-86
2022/03/01 00:42:48;;;;;;;3.40;2.90;;;7.30;57.50;;;;;;5035712;28;20029;-86
2022/03/01 00:45:14;;;;;;;3.60;3.03;;;7.40;57.50;;;;;;5035305;28;20104;-86
2022/03/01 00:47:40;;;;;;;3.45;2.95;;;7.40;57.60;;;;;;5035767;28;20025;-86
2022/03/01 00:50:06;;;;;;;4.30;3.50;;;7.40;58.20;;;;;;5034877;28;20025;-86
2022/03/01 00:52:32;;;;;;;4.40;3.30;;;7.30;57.50;;;;;;5035867;28;20088;-86
2022/03/01 00:54:58;;;;;;;4.03;3.15;;;7.40;57.50;;;;;;5035754;28;20021;-87
2022/03/01 00:57:23;;;;;;;4.05;3.30;;;7.30;57.50;;;;;;5034218;28;20434;-87
2022/03/01 00:59:49;;;;;;;3.30;3.00;;;7.30;57.60;;;;;;5034183;28;20086;-86
2022/03/01 01:02:15;;;;;;;3.88;3.00;;;7.30;57.60;;;;;;5034532;28;20037;-86
2022/03/01 01:04:40;;;;;;;4.40;3.28;;;7.30;57.60;;;;;;5029304;28;20072;-86
2022/03/01 01:07:06;;;;;;;3.80;3.13;;;7.30;57.60;;;;;;5035227;28;20033;-86
2022/03/01 01:09:32;;;;;;;4.32;3.35;;;7.30;57.60;;;;;;5035679;28;20036;-86
2022/03/01 01:11:58;;;;;;;3.40;3.10;;;7.30;57.60;;;;;;5035252;28;20434;-86
2022/03/01 01:14:23;;;;;;;4.63;3.67;;;7.30;57.60;;;;;;5034806;28;20029;-86
2022/03/01 01:16:49;;;;;;;5.28;3.55;;;7.30;57.60;;;;;;5035099;28;20075;-86
2022/03/01 01:19:15;;;;;;;3.65;2.92;;;7.30;57.60;;;;;;5033466;28;20029;-86
2022/03/01 01:24:25;;;;;;;3.28;2.97;;;7.30;57.70;;;;;;5034686;28;20037;-86
2022/03/01 01:26:50;;;;;;;4.50;4.00;;;7.20;57.60;;;;;;5066938;28;20029;-86
2022/03/01 01:29:16;;;;;;;3.60;3.25;;;7.30;57.70;;;;;;5034571;28;20037;-86
2022/03/01 01:31:42;;;;;;;3.75;3.20;;;7.20;57.60;;;;;;5034662;28;20540;-87
2022/03/01 01:34:08;;;;;;;4.07;3.67;;;7.20;57.70;;;;;;5033455;28;20030;-86
2022/03/01 01:36:33;;;;;;;4.47;3.50;;;7.20;57.70;;;;;;5035025;28;20021;-86
2022/03/01 01:39:00;;;;;;;3.97;3.30;;;7.20;57.70;;;;;;5034736;28;20033;-86
2022/03/01 01:41:26;;;;;;;3.78;3.33;;;7.20;57.70;;;;;;5033195;28;20029;-86
2022/03/01 01:43:52;;;;;;;3.20;2.90;;;7.20;57.70;;;;;;5034595;28;20079;-86
2022/03/01 01:46:17;;;;;;;4.43;3.42;;;7.20;57.80;;;;;;5034334;28;20072;-86
2022/03/01 01:48:43;;;;;;;3.55;3.20;;;7.20;57.80;;;;;;5034421;28;20021;-86
2022/03/01 01:51:09;;;;;;;3.78;3.30;;;7.20;57.80;;;;;;5034458;28;20034;-86
2022/03/01 01:53:34;;;;;;;4.18;3.25;;;7.20;57.80;;;;;;5034668;28;20091;-86
2022/03/01 01:56:00;;;;;;;3.72;3.28;;;7.20;57.80;;;;;;5033037;28;20439;-85
2022/03/01 01:58:26;;;;;;;4.22;3.10;;;7.20;57.80;;;;;;5033156;28;20100;-86
2022/03/01 02:00:51;;;;;;;4.57;3.45;;;7.20;57.90;;;;;;5034561;28;20029;-86
2022/03/01 02:03:17;;;;;;;3.65;3.10;;;7.20;57.90;;;;;;5034333;28;20427;-86
2022/03/01 02:05:43;;;;;;;4.00;3.40;;;7.20;58.00;;;;;;5032956;28;20049;-86
2022/03/01 02:08:09;;;;;;;3.97;3.50;;;7.20;58.00;;;;;;5033821;28;20025;-86
2022/03/01 02:10:34;;;;;;;5.47;3.88;;;7.20;58.00;;;;;;5034193;28;20534;-86
2022/03/01 02:13:00;;;;;;;4.90;3.53;;;7.10;58.00;;;;;;5034122;28;20033;-86
2022/03/01 02:15:26;;;;;;;4.43;3.40;;;7.10;58.20;;;;;;5033698;28;20491;-86
2022/03/01 02:17:53;;;;;;;4.20;3.60;;;7.10;58.20;;;;;;5033866;28;20038;-86
2022/03/01 02:20:21;;;;;;;3.78;3.38;;;7.10;58.80;;;;;;5033858;28;20025;-86
2022/03/01 02:22:51;;;;;;;4.25;3.40;;;7.10;58.30;;;;;;5033813;28;20485;-86
2022/03/01 02:25:17;;;;;;;3.63;3.10;;;7.10;58.30;;;;;;5033549;28;20032;-86
2022/03/01 02:27:43;;;;;;;4.05;3.47;;;7.10;58.30;;;;;;5034059;28;20034;-86
2022/03/01 02:30:10;;;;;;;4.57;3.85;;;7.10;58.30;;;;;;5033387;28;20054;-87
2022/03/01 02:32:37;;;;;;;4.57;3.80;;;7.00;58.30;;;;;;5033849;28;20040;-86
2022/03/01 02:35:03;;;;;;;5.10;4.07;;;7.10;58.50;;;;;;5033552;28;20386;-86
2022/03/01 02:37:29;;;;;;;4.90;3.90;;;7.00;58.50;;;;;;5032296;28;20108;-86
2022/03/01 02:39:55;;;;;;;6.20;4.22;;;7.00;58.60;;;;;;5033393;28;20056;-86
2022/03/01 02:42:21;;;;;;;4.45;3.50;;;7.00;58.70;;;;;;5033499;28;20464;-86
2022/03/01 02:44:48;;;;;;;5.15;4.10;;;7.00;58.80;;;;;;5033535;28;20033;-87
2022/03/01 02:47:15;;;;;;;6.03;4.35;;;7.00;58.90;;;;;;5032010;28;20438;-85
2022/03/01 02:49:41;;;;;;;5.93;3.90;;;6.90;58.90;;;;;;5033412;28;20025;-86
2022/03/01 02:52:07;;;;;;;5.00;3.88;;;6.90;58.90;;;;;;5031819;28;20404;-86
2022/03/01 02:54:32;;;;;;;5.20;3.80;;;6.90;58.90;;;;;;5031711;28;20510;-87
2022/03/01 02:57:01;;;;;;;5.35;4.18;;;6.90;58.90;;;;;;5032121;28;20032;-87
2022/03/01 02:59:28;;;;;;;4.93;3.50;;;6.90;58.90;;;;;;5031837;28;20031;-86
2022/03/01 03:01:58;;;;;;;6.10;4.43;;;6.90;59.00;;;;;;5033239;28;20525;-86
2022/03/01 03:04:24;;;;;;;5.97;4.25;;;6.90;59.00;;;;;;5032522;28;20059;-86
2022/03/01 03:06:50;;;;;;;5.13;3.75;;;6.90;59.00;;;;;;5036994;28;20034;-87
2022/03/01 03:09:16;;;;;;;4.80;3.80;;;6.90;59.00;;;;;;5033936;28;20357;-87
2022/03/01 03:11:42;;;;;;;4.40;3.92;;;6.90;59.10;;;;;;5032509;28;20033;-87
2022/03/01 03:14:08;;;;;;;4.85;4.03;;;6.90;59.10;;;;;;5013860;28;20026;-86
2022/03/01 03:16:34;;;;;;;6.13;4.30;;;6.90;59.20;;;;;;5014091;28;20048;-86
2022/03/01 03:18:59;;;;;;;4.15;3.53;;;6.90;59.30;;;;;;5012819;28;20029;-86
2022/03/01 03:21:25;;;;;;;5.57;3.90;;;6.90;59.30;;;;;;5023360;28;20060;-87
2022/03/01 03:23:51;;;;;;;6.50;4.32;;;6.80;59.40;;;;;;5031697;28;20025;-86
2022/03/01 03:26:16;;;;;;;5.25;3.85;;;6.80;59.40;;;;;;5033064;28;20372;-86
2022/03/01 03:28:42;;;;;;;5.75;4.40;;;6.80;59.40;;;;;;5036010;28;20456;-85
2022/03/01 03:31:08;;;;;;;5.53;4.03;;;6.80;59.50;;;;;;5043194;28;20037;-87
2022/03/01 03:33:33;;;;;;;4.57;3.60;;;6.80;59.50;;;;;;5044626;28;20029;-86
2022/03/01 03:35:59;;;;;;;5.78;4.32;;;6.70;59.50;;;;;;5032418;28;20025;-85
2022/03/01 03:38:26;;;;;;;5.05;3.80;;;6.80;59.60;;;;;;5032788;28;20036;-87
2022/03/01 03:40:52;;;;;;;5.13;3.78;;;6.70;59.50;;;;;;5019882;28;20072;-86
2022/03/01 03:43:19;;;;;;;6.10;4.60;;;6.70;59.50;;;;;;5033141;28;20021;-86
2022/03/01 03:45:45;;;;;;;5.15;4.03;;;6.70;59.70;;;;;;5034315;28;20041;-87
2022/03/01 03:48:11;;;;;;;4.95;4.05;;;6.70;59.70;;;;;;5049274;28;20071;-86
2022/03/01 03:50:37;;;;;;;4.85;3.70;;;6.70;59.70;;;;;;5043013;28;20033;-87
2022/03/01 03:53:03;;;;;;;4.68;3.70;;;6.70;59.60;;;;;;5035087;28;20030;-87
2022/03/01 03:55:28;;;;;;;5.60;4.07;;;6.70;59.60;;;;;;5032782;28;20018;-87
2022/03/01 03:57:55;;;;;;;5.13;3.92;;;6.70;59.60;;;;;;5031767;28;20079;-87
2022/03/01 04:00:21;;;;;;;5.85;4.38;;;6.70;59.60;;;;;;5030486;28;20052;-87
2022/03/01 04:02:48;;;;;;;6.15;4.32;;;6.70;60.10;;;;;;5032381;28;20053;-87
2022/03/01 04:05:15;;;;;;;4.43;3.50;;;6.70;59.60;;;;;;5031622;28;20095;-89
2022/03/01 04:07:41;;;;;;;4.55;3.70;;;6.70;59.50;;;;;;5041802;28;20037;-89
2022/03/01 04:10:08;;;;;;;5.25;3.47;;;6.70;59.50;;;;;;5053352;28;20467;-88
2022/03/01 04:12:34;;;;;;;5.28;4.05;;;6.70;59.50;;;;;;5057028;28;20041;-88
2022/03/01 04:15:00;;;;;;;5.15;3.80;;;6.70;59.50;;;;;;5056993;28;20037;-88
2022/03/01 04:17:26;;;;;;;6.20;4.40;;;6.70;59.50;;;;;;5026933;28;20033;-89
2022/03/01 04:19:52;;;;;;;5.18;4.03;;;6.70;59.50;;;;;;5035287;28;20029;-88
2022/03/01 04:22:18;;;;;;;6.07;4.80;;;6.70;59.50;;;;;;5035459;28;20040;-88
2022/03/01 04:24:44;;;;;;;5.00;4.00;;;6.70;59.70;;;;;;5036052;28;20037;-88
2022/03/01 04:27:10;;;;;;;4.53;3.53;;;6.70;59.70;;;;;;5035936;28;20033;-88
2022/03/01 04:29:36;;;;;;;5.75;4.28;;;6.70;59.80;;;;;;5034834;28;20482;-87
2022/03/01 04:32:02;;;;;;;4.70;3.72;;;6.60;59.70;;;;;;5035796;28;20037;-88
2022/03/01 04:34:28;;;;;;;5.47;3.78;;;6.70;59.80;;;;;;5026883;28;20072;-87
2022/03/01 04:36:54;;;;;;;5.60;4.18;;;6.70;59.70;;;;;;5035882;28;20025;-88
2022/03/01 04:39:20;;;;;;;4.60;3.80;;;6.70;59.70;;;;;;5035634;28;20056;-88
2022/03/01 04:41:46;;;;;;;4.20;3.42;;;6.70;59.70;;;;;;5035990;28;20022;-88
2022/03/01 04:44:12;;;;;;;4.35;3.78;;;6.70;59.70;;;;;;5035648;28;20036;-87
2022/03/01 04:46:38;;;;;;;5.32;3.90;;;6.70;59.70;;;;;;5034546;28;20079;-87
2022/03/01 04:49:04;;;;;;;6.07;4.80;;;6.70;59.70;;;;;;5035304;28;20022;-86
2022/03/01 04:51:30;;;;;;;5.50;4.10;;;6.70;59.70;;;;;;5027696;28;20528;-87
2022/03/01 04:53:55;;;;;;;6.63;4.93;;;6.70;59.70;;;;;;5036091;28;20456;-87
2022/03/01 04:56:22;;;;;;;6.35;4.63;;;6.70;59.90;;;;;;5035358;28;20099;-88
2022/03/01 04:58:48;;;;;;;4.82;3.88;;;6.70;59.90;;;;;;5035547;28;20029;-86
2022/03/01 05:01:14;;;;;;;6.10;4.35;;;6.70;59.90;;;;;;5035062;28;20124;-88
2022/03/01 05:03:40;;;;;;;4.63;3.90;;;6.60;60.00;;;;;;5035599;28;20112;-87
2022/03/01 05:06:05;;;;;;;4.63;3.67;;;6.60;59.90;;;;;;5035151;28;20026;-86
2022/03/01 05:08:31;;;;;;;6.50;4.10;;;6.60;59.90;;;;;;5033591;28;20033;-87
2022/03/01 05:10:58;;;;;;;4.22;3.63;;;6.70;59.90;;;;;;5034097;28;20399;-88
2022/03/01 05:13:24;;;;;;;5.00;4.20;;;6.70;59.90;;;;;;5035052;28;20124;-88
2022/03/01 05:15:49;;;;;;;5.50;3.95;;;6.70;59.90;;;;;;5034043;28;20100;-87
2022/03/01 05:18:15;;;;;;;6.00;4.40;;;6.70;59.80;;;;;;5034833;28;20037;-87
2022/03/01 05:20:40;;;;;;;4.65;3.78;;;6.70;59.80;;;;;;5035120;28;20030;-86
2022/03/01 05:23:06;;;;;;;6.13;4.35;;;6.70;59.70;;;;;;5034378;28;20029;-88
2022/03/01 05:25:33;;;;;;;4.57;3.70;;;6.70;59.70;;;;;;5035131;28;20438;-87
2022/03/01 05:27:58;;;;;;;5.60;3.95;;;6.70;59.70;;;;;;5033730;28;20040;-88
2022/03/01 05:30:25;;;;;;;4.53;3.60;;;6.70;59.70;;;;;;5034118;28;20029;-88
2022/03/01 05:32:51;;;;;;;4.68;3.60;;;6.70;59.70;;;;;;5034921;28;20387;-88
2022/03/01 05:35:25;;;;;;;5.03;4.30;;;6.70;59.70;;;;;;5065116;28;20045;-88
2022/03/01 05:37:55;;;;;;;4.47;4.03;;;6.70;59.80;;;;;;5033853;28;20029;-87
2022/03/01 05:40:24;;;;;;;6.95;4.43;;;6.70;59.80;;;;;;5034597;28;20039;-88
2022/03/01 05:42:50;;;;;;;5.28;3.90;;;6.70;59.80;;;;;;5033698;28;20030;-88
2022/03/01 05:45:15;;;;;;;4.22;3.70;;;6.70;59.80;;;;;;5034199;28;20029;-88
2022/03/01 05:47:43;;;;;;;5.18;4.07;;;6.70;59.80;;;;;;5034497;28;20026;-88
2022/03/01 05:50:13;;;;;;;4.72;4.07;;;6.70;59.80;;;;;;5032813;28;20392;-88
2022/03/01 05:52:39;;;;;;;4.07;3.63;;;6.80;59.80;;;;;;5034373;28;20036;-87
2022/03/01 05:55:07;;;;;;;5.03;3.97;;;6.80;59.80;;;;;;5034003;28;20079;-86
2022/03/01 05:57:33;;;;;;;4.07;3.50;;;6.80;59.80;;;;;;5034579;28;20441;-87
2022/03/01 05:59:59;;;;;;;6.25;4.82;;;6.80;59.90;;;;;;5034293;28;20029;-86
2022/03/01 06:02:25;;;;;;;6.10;4.32;;;6.80;59.90;;;;;;5065936;28;20021;-87
2022/03/01 06:04:52;;;;;;;4.72;4.00;;;6.80;59.80;;;;;;5034064;28;20050;-88
2022/03/01 06:07:18;;;;;;;5.38;4.50;;;6.70;59.70;;;;;;5032631;28;20034;-87
2022/03/01 06:09:43;;;;;;;4.82;3.65;;;6.80;59.80;;;;;;5032983;28;20116;-88
2022/03/01 06:12:09;;;;;;;6.30;4.53;;;6.80;59.80;;;;;;5033630;28;20117;-87
2022/03/01 06:14:35;;;;;;;4.55;3.70;;;6.80;59.90;;;;;;5034083;28;20036;-88
2022/03/01 06:17:01;;;;;;;4.82;3.78;;;6.80;59.90;;;;;;5032440;28;20032;-88
2022/03/01 06:19:26;;;;;;;5.72;4.60;;;6.80;59.90;;;;;;5024763;28;20494;-88
2022/03/01 06:21:52;;;;;;;5.25;4.13;;;6.80;59.90;;;;;;5034045;28;20079;-87
2022/03/01 06:24:18;;;;;;;5.28;3.85;;;6.80;59.90;;;;;;5033667;28;20033;-88
2022/03/01 06:26:44;;;;;;;5.43;4.03;;;6.80;59.90;;;;;;5032763;28;20025;-87
2022/03/01 06:29:10;;;;;;;5.18;3.88;;;6.80;59.90;;;;;;5033595;28;20031;-87
2022/03/01 06:31:35;;;;;;;5.00;4.00;;;6.80;59.80;;;;;;5033463;28;20481;-87
2022/03/01 06:34:01;;;;;;;4.97;4.32;;;6.80;59.90;;;;;;5035432;28;20037;-84
2022/03/01 06:36:27;;;;;;;4.88;3.70;;;6.90;59.90;;;;;;5033622;28;20028;-89
2022/03/01 06:38:53;;;;;;;4.57;3.78;;;6.80;59.80;;;;;;5038878;28;20064;-80
2022/03/01 06:41:18;;;;;;;5.95;4.30;;;6.90;59.90;;;;;;5031137;28;20032;-85
2022/03/01 06:43:44;;;;;;;5.55;4.22;;;6.90;59.90;;;;;;5037270;28;20379;-87
2022/03/01 06:46:10;;;;;;;5.30;4.15;;;6.90;59.90;;;;;;5032715;28;20035;-89
2022/03/01 06:48:36;;;;;;;5.03;4.35;;;6.90;59.90;;;;;;5032401;28;20033;-86
2022/03/01 06:51:03;;;;;;;5.45;3.85;;;6.90;59.90;;;;;;5030837;28;20076;-89
2022/03/01 06:53:29;;;;;;;5.15;3.97;;;6.90;59.90;;;;;;5035286;28;20026;-86
2022/03/01 06:55:55;;;;;;;5.88;4.25;;;6.90;59.90;;;;;;5035942;28;20033;-89
2022/03/01 06:58:22;;;;;;;5.97;4.20;;;6.90;59.90;;;;;;5033988;28;20464;-88
2022/03/01 07:00:47;;;;;;;5.65;3.95;;;6.90;59.90;;;;;;5032203;28;20388;-87
2022/03/01 07:03:13;;;;;;;5.10;3.80;;;6.90;59.90;;;;;;5033021;28;20044;-86
2022/03/01 07:05:39;;;;;;;5.30;3.85;;;6.90;60.00;;;;;;5034200;28;20088;-87
2022/03/01 07:08:05;;;;;;;4.55;3.70;;;6.90;60.00;;;;;;5032445;28;20033;-88
2022/03/01 07:10:32;;;;;;;5.75;4.75;;;6.90;59.90;;;;;;5032644;28;20080;-88
2022/03/01 07:12:58;;;;;;;5.35;4.18;;;6.90;59.90;;;;;;5028154;28;20037;-87
2022/03/01 07:15:23;;;;;;;5.82;4.13;;;6.90;60.00;;;;;;5032351;28;20460;-87
2022/03/01 07:17:49;;;;;;;5.50;4.03;;;6.90;59.90;;;;;;5032503;28;20058;-85
2022/03/01 07:20:15;;;;;;;5.93;4.32;;;6.90;60.00;;;;;;5030361;28;20033;-88
2022/03/01 07:22:41;;;;;;;5.45;4.30;;;6.90;60.00;;;;;;5035822;28;20112;-88
2022/03/01 07:25:07;;;;;;;5.40;4.00;;;6.90;60.00;;;;;;5035488;28;20384;-90
2022/03/01 07:27:33;;;;;;;5.22;4.10;;;6.90;60.00;;;;;;5033665;28;20490;-89
2022/03/01 07:29:59;;;;;;;4.85;4.07;;;6.90;60.00;;;;;;5033246;28;20139;-89
2022/03/01 07:32:25;;;;;;;4.38;3.78;;;6.90;60.00;;;;;;5037319;28;20060;-86
2022/03/01 07:34:51;;;;;;;6.35;4.38;;;6.90;60.00;;;;;;5052929;28;20368;-88
2022/03/01 07:37:16;;;;;;;5.35;4.20;;;6.90;60.00;;;;;;5044282;28;20525;-86
2022/03/01 07:39:42;;;;;;;4.30;3.70;;;6.90;60.00;;;;;;5033806;28;20029;-88
2022/03/01 07:42:08;;;;;;;5.40;4.25;;;6.90;60.00;;;;;;5031061;28;20080;-88
2022/03/01 07:44:37;;;;;;;5.60;3.88;;;6.90;60.00;;;;;;5032759;28;20027;-87
2022/03/01 07:47:05;;;;;;;5.20;4.18;;;6.90;60.00;;;;;;5034883;28;20022;-86
2022/03/01 07:49:31;;;;;;;4.93;3.85;;;6.90;60.00;;;;;;5028813;28;20025;-88
2022/03/01 07:51:56;;;;;;;6.05;4.53;;;6.90;60.00;;;;;;5037948;28;20079;-89
2022/03/01 07:54:22;;;;;;;4.68;3.95;;;7.00;60.10;;;;;;5030395;28;20030;-88
2022/03/01 07:56:48;;;;;;;6.55;4.20;;;7.00;60.00;;;;;;5035867;28;20021;-87
2022/03/01 07:59:14;;;;;;;5.70;4.38;;;7.00;60.00;;;;;;5039506;28;20037;-88
2022/03/01 08:01:39;;;;;;;5.90;4.07;;;7.00;60.00;;;;;;5038454;28;20091;-86
2022/03/01 08:04:05;;;;;;;5.70;4.32;;;7.00;60.00;;;;;;5034812;28;20116;-86
2022/03/01 08:06:30;;;;;;;4.55;3.85;;;7.00;60.00;;;;;;5040126;28;20028;-88
2022/03/01 08:08:56;;;;;;;4.88;3.88;;;7.00;60.00;;;;;;5037202;28;20029;-88
2022/03/01 08:11:22;;;;;;;5.95;4.45;;;7.00;60.00;;;;;;5036746;28;20039;-87
2022/03/01 08:13:48;;;;;;;4.70;3.78;;;7.10;60.00;;;;;;5036002;28;20029;-87
2022/03/01 08:16:14;;;;;;;5.47;4.20;;;7.10;60.00;;;;;;5037259;28;20084;-85
2022/03/01 08:18:39;;;;;;;5.50;4.10;;;7.10;60.00;;;;;;5035623;28;20472;-87
2022/03/01 08:21:06;;;;;;;5.35;4.00;;;7.10;60.00;;;;;;5035416;28;20060;-87
2022/03/01 08:23:32;;;;;;;5.72;4.70;;;7.10;60.00;;;;;;5034684;28;20155;-88
2022/03/01 08:25:58;;;;;;;5.95;4.15;;;7.10;60.00;;;;;;5038759;28;20032;-88
2022/03/01 08:28:25;;;;;;;6.40;4.53;;;7.10;60.00;;;;;;5036609;28;20061;-88
2022/03/01 08:30:52;;;;;;;5.55;3.90;;;7.10;60.00;;;;;;5037078;28;20025;-89
2022/03/01 08:33:20;;;;;;;5.85;3.85;;;7.10;60.00;;;;;;5036747;28;20357;-89
2022/03/01 08:35:46;;;;;;;5.68;4.45;;;7.10;60.00;;;;;;5054417;28;20081;-89
2022/03/01 08:38:11;;;;;;;4.82;4.07;;;7.10;60.00;;;;;;5046223;28;20026;-87
2022/03/01 08:40:39;;;;;;;6.10;4.82;;;7.10;60.00;;;;;;5035199;28;20503;-87
2022/03/01 08:43:06;;;;;;;5.45;3.92;;;7.10;60.00;;;;;;5029470;28;20021;-82
2022/03/01 08:45:32;;;;;;;5.90;4.75;;;7.10;60.10;;;;;;5036083;28;20022;-88
2022/03/01 08:47:58;;;;;;;5.45;3.70;;;7.10;61.00;;;;;;5035254;28;20464;-85
2022/03/01 08:50:24;;;;;;;6.32;4.03;;;7.20;61.50;;;;;;5034340;28;20032;-77
2022/03/01 08:52:50;;;;;;;5.10;4.05;;;7.20;61.60;;;;;;5036098;28;20025;-81
2022/03/01 08:55:16;;;;;;;6.70;4.57;;;7.20;61.60;;;;;;5036465;28;20030;-81
2022/03/01 08:57:42;;;;;;;5.90;4.00;;;7.20;61.50;;;;;;5035224;28;20143;-81
2022/03/01 09:00:11;;;;;;;5.80;4.38;;;7.20;61.50;;;;;;5032555;28;20040;-82
2022/03/01 09:02:37;;;;;;;5.45;4.05;;;7.20;61.50;;;;;;5047260;28;20031;-75
2022/03/01 09:05:05;;;;;;;6.13;4.25;;;7.20;62.10;;;;;;5034817;28;20220;-78
2022/03/01 09:07:31;;;;;;;5.07;3.88;;;7.20;62.20;;;;;;5018901;28;20124;-77
2022/03/01 09:09:57;;;;;;;6.88;4.65;;;7.30;62.40;;;;;;5027259;28;20065;-72
2022/03/01 09:12:22;;;;;;;5.88;4.25;;;7.30;62.80;;;;;;5033338;28;20409;-78
2022/03/01 09:14:48;;;;;;;5.97;3.88;;;7.30;62.80;;;;;;5034144;28;20422;-74
2022/03/01 09:17:14;;;;;;;4.90;3.90;;;7.30;62.70;;;;;;5039213;28;20113;-82
2022/03/01 09:19:39;;;;;;;5.38;3.92;;;7.30;62.60;;;;;;5035835;28;20026;-75
2022/03/01 09:22:05;;;;;;;5.70;4.15;;;7.30;62.50;;;;;;5033215;28;20034;-77
2022/03/01 09:24:32;;;;;;;5.70;4.05;;;7.30;62.40;;;;;;5035498;28;20029;-81
2022/03/01 09:27:01;;;;;;;5.85;4.10;;;7.30;62.30;;;;;;5033042;28;20120;-83
2022/03/01 09:29:28;;;;;;;4.90;4.03;;;7.30;62.20;;;;;;5032002;28;20033;-80
2022/03/01 09:31:56;;;;;;;5.97;4.60;;;7.30;62.20;;;;;;5034166;28;20029;-80
2022/03/01 09:34:22;;;;;;;5.53;4.05;;;7.30;62.10;;;;;;5035538;28;20045;-78
2022/03/01 09:36:48;;;;;;;5.88;4.00;;;7.30;62.10;;;;;;5035029;28;20029;-77
2022/03/01 09:39:14;;;;;;;6.38;4.22;;;7.30;62.00;;;;;;5033610;28;20022;-77
2022/03/01 09:41:40;;;;;;;5.18;3.80;;;7.30;61.90;;;;;;5035303;28;20033;-75
2022/03/01 09:44:06;;;;;;;6.28;4.22;;;7.20;61.80;;;;;;5033305;28;20506;-75
2022/03/01 09:46:32;;;;;;;6.30;4.43;;;7.30;61.90;;;;;;5035284;28;20053;-86
2022/03/01 09:48:58;;;;;;;5.80;4.63;;;7.20;61.80;;;;;;5031280;28;20026;-76
2022/03/01 09:51:25;;;;;;;5.97;4.60;;;7.30;61.80;;;;;;5034840;28;20038;-76
2022/03/01 09:53:52;;;;;;;5.72;4.20;;;7.30;61.80;;;;;;5033523;28;20065;-72
2022/03/01 09:56:18;;;;;;;5.18;4.15;;;7.30;61.80;;;;;;5033862;28;20030;-81
2022/03/01 09:58:49;;;;;;;6.18;4.72;;;7.30;61.80;;;;;;5033619;28;20101;-84
2022/03/01 10:01:16;;;;;;;5.68;4.32;;;7.30;61.80;;;;;;5031292;28;20029;-80
2022/03/01 10:03:48;;;;;;;6.25;4.50;;;7.30;61.80;;;;;;5030616;28;20022;-81
2022/03/01 10:06:15;;;;;;;5.82;4.40;;;7.30;61.80;;;;;;5031204;28;20113;-80
2022/03/01 10:08:42;;;;;;;6.05;4.43;;;7.30;61.70;;;;;;5030407;28;20028;-81
2022/03/01 10:11:08;;;;;;;7.05;5.22;;;7.30;61.70;;;;;;5033660;28;20037;-81
2022/03/01 10:13:38;;;;;;;5.47;4.30;;;7.30;61.70;;;;;;5029904;28;20383;-81
2022/03/01 10:16:14;;;;;;;5.82;4.20;;;7.30;62.10;;;;;;5063154;28;20053;-82
2022/03/01 10:18:43;;;;;;;6.60;4.88;;;7.30;62.40;;;;;;5031726;28;20025;-81
2022/03/01 10:21:12;;;;;;;5.45;4.15;;;7.40;62.40;;;;;;5032142;28;20806;-82
2022/03/01 10:23:45;;;;;;;5.82;4.60;;;7.40;62.40;;;;;;5031886;28;20037;-80
2022/03/01 10:26:15;;;;;;;6.43;4.60;;;7.40;62.30;;;;;;5029319;28;20028;-81
2022/03/01 10:28:41;;;;;;;4.50;3.47;;;7.40;62.30;;;;;;5032137;28;20036;-81
2022/03/01 10:31:13;;;;;;;6.07;4.32;;;7.40;62.20;;;;;;5030105;28;20045;-81
2022/03/01 10:33:53;;;;;;;5.70;4.10;;;7.40;62.20;;;;;;5031907;28;20243;-81
2022/03/01 10:36:28;;;;;;;6.45;4.70;;;7.40;62.20;;;;;;5030912;28;20517;-82
2022/03/01 10:38:54;;;;;;;7.50;4.60;;;7.40;62.10;;;;;;5030894;28;20029;-82
2022/03/01 10:41:25;;;;;;;7.15;4.60;;;7.40;62.10;;;;;;5029994;28;20430;-82
2022/03/01 10:43:53;;;;;;;6.00;4.00;;;7.40;62.00;;;;;;5031971;28;20029;-81
2022/03/01 10:46:19;;;;;;;6.22;4.07;;;7.40;62.00;;;;;;5030988;28;20044;-83
2022/03/01 10:48:45;;;;;;;6.50;4.43;;;7.40;62.00;;;;;;5030770;28;20021;-81
2022/03/01 10:51:11;;;;;;;6.18;4.50;;;7.40;62.00;;;;;;5029949;28;20041;-82
2022/03/01 10:53:42;;;;;;;6.45;4.55;;;7.40;62.00;;;;;;5027243;28;20041;-81
2022/03/01 10:56:11;;;;;;;5.60;4.07;;;7.40;62.00;;;;;;5028729;28;20036;-81
2022/03/01 10:58:39;;;;;;;6.28;3.95;;;7.40;61.90;;;;;;5029042;28;20044;-81
2022/03/01 11:01:06;;;;;;;6.20;4.32;;;7.40;61.90;;;;;;5029132;28;20403;-80
2022/03/01 11:03:32;;;;;;;5.63;4.10;;;7.40;61.90;;;;;;5027549;28;20033;-78
2022/03/01 11:05:59;;;;;;;7.00;4.80;;;7.40;61.90;;;;;;5028259;28;20053;-81
2022/03/01 11:08:38;;;;;;;6.00;4.30;;;7.40;62.00;;;;;;5038380;28;20025;-84
2022/03/01 11:11:07;;;;;;;5.50;4.10;;;7.40;61.90;;;;;;5029179;28;20082;-81
2022/03/01 11:13:44;;;;;;;7.13;4.43;;;7.40;61.90;;;;;;5031709;28;20029;-79
2022/03/01 11:16:22;;;;;;;6.10;4.78;;;7.40;61.90;;;;;;5029686;28;20188;-80
2022/03/01 11:19:05;;;;;;;5.95;4.85;;;7.40;61.80;;;;;;5028054;28;20064;-82
2022/03/01 11:21:34;;;;;;;6.70;4.75;;;7.40;61.90;;;;;;5026756;28;20036;-84
2022/03/01 11:24:00;;;;;;;5.45;4.20;;;7.40;61.80;;;;;;5029026;28;20025;-81
2022/03/01 11:26:36;;;;;;;6.20;4.68;;;7.40;61.80;;;;;;5026118;28;20029;-90
2022/03/01 11:29:07;;;;;;;6.60;4.18;;;7.40;61.80;;;;;;5027363;28;20040;-84
2022/03/01 11:31:33;;;;;;;6.80;4.80;;;7.40;61.80;;;;;;5026407;28;20037;-83
2022/03/01 11:34:01;;;;;;;7.00;5.00;;;7.40;61.80;;;;;;5026842;28;20087;-85
2022/03/01 11:36:32;;;;;;;7.05;4.57;;;7.50;61.80;;;;;;5028959;28;20447;-83
2022/03/01 11:39:16;;;;;;;6.65;4.72;;;7.50;61.80;;;;;;5023883;28;20030;-82
2022/03/01 11:41:43;;;;;;;6.10;4.57;;;7.40;61.80;;;;;;5028155;28;20022;-84
2022/03/01 11:44:10;;;;;;;7.10;4.78;;;7.40;61.80;;;;;;5021915;28;20045;-83
2022/03/01 11:46:42;;;;;;;7.38;4.82;;;7.40;61.70;;;;;;5031649;28;20037;-89
2022/03/01 11:49:08;;;;;;;7.32;5.38;;;7.50;61.80;;;;;;5027695;28;20075;-79
2022/03/01 11:51:36;;;;;;;8.45;5.57;;;7.40;61.80;;;;;;5029885;28;20048;-82
2022/03/01 11:54:09;;;;;;;7.68;5.32;;;7.50;61.80;;;;;;5026686;28;20034;-90
2022/03/01 11:56:36;;;;;;;8.02;4.93;;;7.50;61.80;;;;;;5021422;28;20036;-83
2022/03/01 11:59:08;;;;;;;7.22;5.05;;;7.40;61.90;;;;;;5025076;28;20121;-81
2022/03/01 12:01:34;;;;;;;6.50;4.68;;;7.40;61.80;;;;;;5026701;28;20037;-81
2022/03/01 12:04:05;;;;;;;7.43;5.63;;;7.40;61.80;;;;;;5022547;28;20703;-92
2022/03/01 12:06:34;;;;;;;7.80;4.57;;;7.50;61.90;;;;;;5026946;28;20094;-79
2022/03/01 12:09:03;;;;;;;7.55;4.40;;;7.50;62.20;;;;;;5021666;28;20484;-87
2022/03/01 12:11:40;;;;;;;6.68;4.75;;;7.50;63.30;;;;;;5024946;28;20041;-88
2022/03/01 12:14:12;;;;;;;7.90;4.82;;;7.50;63.80;;;;;;5023880;28;20030;-89
2022/03/01 12:16:39;;;;;;;6.95;4.90;;;7.50;63.90;;;;;;5022998;28;20470;-83
2022/03/01 12:19:17;;;;;;;8.07;5.00;;;7.60;63.90;;;;;;5028286;28;20033;-89
2022/03/01 12:21:54;;;;;;;8.35;5.65;;;7.60;64.20;;;;;;5024672;28;20041;-91
2022/03/01 12:24:22;;;;;;;9.60;5.70;;;7.60;64.00;;;;;;5039433;28;20444;-91
2022/03/01 12:26:50;;;;;;;9.63;6.18;;;7.60;63.50;;;;;;5032356;28;20030;-92
2022/03/01 12:29:25;;;;;;;9.68;6.07;;;7.50;63.20;;;;;;5024679;28;20128;-92
2022/03/01 12:32:03;;;;;;;7.82;5.47;;;7.50;63.00;;;;;;5022478;28;20080;-90
2022/03/01 12:34:32;;;;;;;6.70;4.85;;;7.40;62.80;;;;;;5027035;28;20091;-90
2022/03/01 12:37:01;;;;;;;8.93;5.63;;;7.40;62.80;;;;;;5026912;28;20029;-90
2022/03/01 12:39:27;;;;;;;8.90;5.38;;;7.30;62.80;;;;;;5026023;28;20475;-89
2022/03/01 12:41:54;;;;;;;8.13;5.35;;;7.30;62.80;;;;;;5026819;28;20034;-87
2022/03/01 12:44:27;;;;;;;7.32;4.80;;;7.20;62.80;;;;;;5027845;28;20037;-90
2022/03/01 12:46:53;;;;;;;8.57;5.95;;;7.10;62.80;;;;;;5025988;28;20048;-88
2022/03/01 12:49:20;;;;;;;10.43;6.60;;;7.10;62.90;;;;;;5025676;28;20029;-88
2022/03/01 12:51:47;;;;;;;8.93;5.25;;;7.10;62.90;;;;;;5027970;28;20056;-90
2022/03/01 12:54:20;;;;;;;8.57;5.45;;;7.10;62.90;;;;;;5028650;28;20049;-87
2022/03/01 12:56:52;;;;;;;8.85;5.30;;;7.10;62.90;;;;;;5022662;28;20026;-89
2022/03/01 12:59:24;;;;;;;8.75;5.72;;;7.10;63.00;;;;;;5026066;28;20463;-89